This is the latest recevied weather packets stored in our database for station/object IU1OLT-7. If no packets are shown the sender has not sent any weather packets the latest 10 day(s).
| Time | Temp. | Humidity | Pressure | Rain* | Wind** | Luminosity | Snow |
|---|---|---|---|---|---|---|---|
| 1776950401 | 17.22° C | 24% | 1023 hPa | - | - | - | - |
| 1776949501 | 20° C | 23% | 1023 hPa | - | - | - | - |
| 1776948601 | 22.22° C | 20% | 1022.9 hPa | - | - | - | - |
| 1776947700 | 21.11° C | 22% | 1023.1 hPa | - | - | - | - |
| 1776946800 | 18.33° C | 24% | 1023.2 hPa | - | - | - | - |
| 1776945001 | 17.22° C | 30% | 1023.3 hPa | - | - | - | - |
| 1776944100 | 18.33° C | 28% | 1023.3 hPa | - | - | - | - |
| 1776943201 | 19.44° C | 27% | 1023.4 hPa | - | - | - | - |
| 1776942301 | 16.67° C | 31% | 1023.6 hPa | - | - | - | - |
| 1776941400 | 19.44° C | 30% | 1023.6 hPa | - | - | - | - |
| 1776940501 | 20° C | 32% | 1023.7 hPa | - | - | - | - |
| 1776939601 | 18.89° C | 31% | 1023.8 hPa | - | - | - | - |
| 1776938701 | 18.33° C | 32% | 1024 hPa | - | - | - | - |
| 1776937800 | 17.78° C | 35% | 1024 hPa | - | - | - | - |
| 1776936901 | 16.67° C | 36% | 1024.2 hPa | - | - | - | - |
| 1776936000 | 17.78° C | 32% | 1024.2 hPa | - | - | - | - |
| 1776935100 | 20° C | 30% | 1024.1 hPa | - | - | - | - |
| 1776934201 | 19.44° C | 30% | 1024.1 hPa | - | - | - | - |
| 1776933301 | 19.44° C | 31% | 1024.2 hPa | - | - | - | - |
| 1776932400 | 15° C | 41% | 1024.3 hPa | - | - | - | - |
| 1776931500 | 15.56° C | 36% | 1024.2 hPa | - | - | - | - |
| 1776930601 | 13.89° C | 39% | 1024.3 hPa | - | - | - | - |
| 1776929701 | 13.33° C | 44% | 1024.2 hPa | - | - | - | - |
| 1776928800 | 15° C | 39% | 1024.1 hPa | - | - | - | - |
| 1776927900 | 13.89° C | 44% | 1023.9 hPa | - | - | - | - |
* Rain since midnight (hover to see other rain measurements)
** Current wind speed in m/s (hover to see current wind gust speed)